Time;durP1;ratioP1;P1;durP2;ratioP2;P2;SDS_P1;SDS_P2;PMS_P1;PMS_P2;Temp;Humidity;BMP_temperature;BMP_pressure;BME280_temperature;BME280_humidity;BME280_pressure;Samples;Min_cycle;Max_cycle;Signal;HPM_P1;HPM_P2
2021/12/19 00:09:12;;;;;;;19.63;14.68;;;;;;;19.03;42.61;103659.31;4880310;29;20040;-68
2021/12/19 00:11:37;;;;;;;21.45;12.82;;;;;;;19.00;42.77;103653.56;4881595;29;20029;-68
2021/12/19 00:14:04;;;;;;;54.47;34.17;;;;;;;18.99;42.61;103649.16;4881287;29;20510;-68
2021/12/19 00:16:30;;;;;;;20.42;14.18;;;;;;;18.97;42.64;103649.47;4881347;29;20028;-68
2021/12/19 00:18:57;;;;;;;18.55;13.65;;;;;;;19.02;42.46;103646.59;4881578;29;20112;-68
2021/12/19 00:21:25;;;;;;;22.85;13.57;;;;;;;19.02;42.50;103652.16;4881171;29;20033;-68
2021/12/19 00:23:52;;;;;;;21.40;14.75;;;;;;;18.98;42.61;103644.75;4881212;29;20093;-68
2021/12/19 00:26:18;;;;;;;18.58;13.93;;;;;;;19.03;42.69;103642.69;4881170;29;20029;-68
2021/12/19 00:28:47;;;;;;;17.52;13.30;;;;;;;19.15;42.27;103647.81;4881163;29;20024;-68
2021/12/19 00:31:13;;;;;;;17.53;13.53;;;;;;;18.98;42.64;103642.81;4881294;29;20430;-68
2021/12/19 00:33:40;;;;;;;15.30;12.57;;;;;;;18.93;42.88;103642.88;4881110;29;20033;-68
2021/12/19 00:36:07;;;;;;;18.10;13.48;;;;;;;19.04;42.54;103643.53;4880929;29;20041;-68
2021/12/19 00:38:33;;;;;;;18.73;13.05;;;;;;;19.08;42.32;103631.56;4880925;29;20121;-68
2021/12/19 00:41:00;;;;;;;19.92;13.57;;;;;;;19.16;42.41;103635.59;4880928;29;20044;-68
2021/12/19 00:43:36;;;;;;;19.20;12.95;;;;;;;19.06;42.63;103627.44;4881074;29;20029;-66
2021/12/19 00:46:09;;;;;;;19.45;12.43;;;;;;;19.09;42.58;103624.06;4881127;29;20480;-66
2021/12/19 00:48:38;;;;;;;19.60;13.63;;;;;;;19.18;42.10;103622.25;4880572;29;20057;-66
2021/12/19 00:51:05;;;;;;;18.77;13.55;;;;;;;19.19;42.25;103623.88;4880569;29;20108;-67
2021/12/19 00:53:31;;;;;;;17.85;14.13;;;;;;;19.12;42.31;103623.47;4879512;29;20441;-67
2021/12/19 00:55:56;;;;;;;18.20;13.38;;;;;;;19.14;42.29;103626.75;4880374;29;20037;-66
2021/12/19 00:58:22;;;;;;;16.02;12.48;;;;;;;19.20;41.96;103630.28;4880912;29;20032;-67
2021/12/19 01:00:48;;;;;;;19.15;12.90;;;;;;;19.13;42.33;103628.72;4880793;29;20029;-66
2021/12/19 01:03:13;;;;;;;16.98;13.38;;;;;;;19.15;42.02;103627.56;4880560;29;20112;-66
2021/12/19 01:05:41;;;;;;;18.23;13.10;;;;;;;19.15;41.99;103627.56;4880481;29;20037;-67
2021/12/19 01:08:08;;;;;;;17.05;12.38;;;;;;;19.07;42.47;103623.53;4880351;29;20037;-68
2021/12/19 01:10:35;;;;;;;24.60;13.82;;;;;;;19.05;42.29;103621.09;4880376;29;20036;-67
2021/12/19 01:13:02;;;;;;;24.70;12.85;;;;;;;19.02;42.32;103620.84;4880381;29;20460;-68
2021/12/19 01:15:28;;;;;;;20.10;12.98;;;;;;;19.11;42.10;103622.63;4863503;29;20425;-68
2021/12/19 01:17:55;;;;;;;18.65;12.40;;;;;;;19.07;42.16;103623.53;4880221;29;20036;-67
2021/12/19 01:20:24;;;;;;;16.80;12.45;;;;;;;19.04;42.23;103621.34;4879451;29;20381;-68
2021/12/19 01:22:51;;;;;;;17.60;11.75;;;;;;;19.09;42.18;103621.28;4880127;29;20036;-68
2021/12/19 01:25:16;;;;;;;19.23;13.70;;;;;;;19.09;42.18;103619.34;4880021;29;20037;-68
2021/12/19 01:27:42;;;;;;;21.83;12.77;;;;;;;19.07;42.06;103623.53;4880131;29;20072;-68
2021/12/19 01:30:10;;;;;;;18.75;12.38;;;;;;;19.09;42.18;103615.75;4879989;29;20031;-68
2021/12/19 01:32:37;;;;;;;20.58;12.60;;;;;;;19.06;42.29;103610.81;4880011;29;20438;-68
2021/12/19 01:35:04;;;;;;;19.13;13.63;;;;;;;19.11;42.21;103616.25;4879928;29;20033;-68
2021/12/19 01:37:29;;;;;;;20.00;13.48;;;;;;;19.06;42.21;103610.81;4880070;29;20057;-68
2021/12/19 01:39:55;;;;;;;22.05;14.65;;;;;;;19.08;42.31;103611.31;4879796;29;20060;-68
2021/12/19 01:42:21;;;;;;;16.15;13.18;;;;;;;19.08;42.31;103608.56;4879829;29;20029;-67
2021/12/19 01:44:47;;;;;;;16.00;12.43;;;;;;;19.11;42.07;103602.41;4879704;29;20029;-68
2021/12/19 01:47:14;;;;;;;20.70;13.57;;;;;;;19.07;42.32;103610.50;4879748;29;20025;-67
2021/12/19 01:49:40;;;;;;;16.60;13.77;;;;;;;19.05;42.21;103610.00;4879475;29;20089;-68
2021/12/19 01:52:06;;;;;;;26.48;14.20;;;;;;;19.08;42.14;103611.31;4879582;29;20116;-68
2021/12/19 01:54:32;;;;;;;17.33;12.68;;;;;;;19.10;42.17;103601.56;4879836;29;20029;-68
2021/12/19 01:56:58;;;;;;;18.85;12.10;;;;;;;19.12;41.89;103606.84;4879640;29;20488;-68
2021/12/19 01:59:23;;;;;;;18.50;12.73;;;;;;;19.17;42.20;103603.97;4862764;29;20116;-68
2021/12/19 02:01:53;;;;;;;17.90;12.70;;;;;;;19.15;42.18;103595.13;4879779;29;20044;-68
2021/12/19 02:04:21;;;;;;;22.60;12.82;;;;;;;19.15;42.25;103597.09;4879450;29;20076;-68
2021/12/19 02:06:47;;;;;;;17.25;12.15;;;;;;;19.21;42.16;103595.88;4879382;29;20476;-68
2021/12/19 02:09:13;;;;;;;16.02;12.43;;;;;;;19.22;42.14;103601.13;4879239;29;20029;-68
2021/12/19 02:11:41;;;;;;;19.60;12.27;;;;;;;19.25;42.03;103594.97;4879322;29;20037;-68
2021/12/19 02:14:08;;;;;;;16.02;12.07;;;;;;;19.25;42.05;103594.13;4878952;29;20049;-68
2021/12/19 02:16:37;;;;;;;16.73;12.00;;;;;;;19.22;42.12;103590.03;4879463;29;20047;-68
2021/12/19 02:19:03;;;;;;;15.23;11.82;;;;;;;19.12;42.03;103587.44;4879209;29;20061;-68
2021/12/19 02:21:29;;;;;;;13.88;10.63;;;;;;;19.13;41.99;103586.31;4879177;29;20032;-68
2021/12/19 02:23:59;;;;;;;13.27;11.00;;;;;;;19.10;42.00;103578.59;4879308;29;20108;-68
2021/12/19 02:26:25;;;;;;;14.60;11.45;;;;;;;19.13;41.86;103592.69;4878418;29;20472;-68
2021/12/19 02:28:51;;;;;;;14.00;12.43;;;;;;;19.07;41.67;103595.84;4876888;29;20037;-68
2021/12/19 02:31:16;;;;;;;17.17;13.07;;;;;;;18.99;41.83;103591.78;4879015;29;20636;-68
2021/12/19 02:33:54;;;;;;;18.77;11.48;;;;;;;19.03;41.70;103592.00;4878857;29;20025;-68
2021/12/19 02:36:27;;;;;;;17.48;11.32;;;;;;;19.02;41.84;103587.59;4879215;29;20033;-67
2021/12/19 02:50:08;;;;;;;16.83;14.52;;;;;;;19.07;41.66;103598.59;4878678;29;20568;-68
2021/12/19 02:52:34;;;;;;;15.90;12.88;;;;;;;19.01;41.77;103597.03;4878821;29;20111;-68
2021/12/19 02:55:00;;;;;;;17.30;14.45;;;;;;;18.94;41.78;103599.34;4878767;29;20116;-67
2021/12/19 02:57:26;;;;;;;14.18;12.60;;;;;;;18.91;41.88;103594.44;4878792;29;20058;-71
2021/12/19 02:59:52;;;;;;;15.43;12.40;;;;;;;18.99;41.79;103585.44;4878969;29;20029;-68
2021/12/19 03:02:18;;;;;;;16.08;13.25;;;;;;;18.91;41.87;103575.03;4878711;29;20036;-68
2021/12/19 03:04:58;;;;;;;18.02;12.48;;;;;;;18.91;41.96;103577.81;4878669;29;20025;-68
2021/12/19 03:07:25;;;;;;;18.13;12.43;;;;;;;18.98;41.86;103572.72;4878818;29;20021;-67
2021/12/19 03:18:05;;;;;;;14.45;11.32;;;;;;;18.73;42.12;103568.38;4878620;29;20066;-68
2021/12/19 03:20:32;;;;;;;16.63;12.93;;;;;;;18.80;42.03;103574.34;4878754;29;20041;-68
2021/12/19 03:22:58;;;;;;;17.45;12.85;;;;;;;18.82;42.03;103567.41;4878395;29;20040;-68
2021/12/19 03:25:25;;;;;;;17.70;12.73;;;;;;;18.81;42.30;103567.69;4878507;29;20029;-68
2021/12/19 03:27:50;;;;;;;17.80;12.73;;;;;;;18.78;42.23;103563.59;4878466;29;20029;-68
2021/12/19 03:30:17;;;;;;;17.88;13.10;;;;;;;18.84;42.19;103567.94;4878401;29;20521;-68
2021/12/19 03:32:43;;;;;;;17.55;13.55;;;;;;;18.90;42.09;103565.09;4878366;29;20120;-68
2021/12/19 03:35:09;;;;;;;14.38;11.32;;;;;;;18.94;42.01;103563.34;4878581;29;20116;-68
2021/12/19 03:37:35;;;;;;;16.60;12.18;;;;;;;18.95;41.83;103567.75;4878321;29;20037;-68
2021/12/19 03:40:12;;;;;;;20.55;12.30;;;;;;;18.88;41.93;103568.13;4878327;29;20132;-68
2021/12/19 03:42:46;;;;;;;16.73;12.40;;;;;;;18.87;42.05;103562.91;4878271;29;20044;-68
2021/12/19 03:45:16;;;;;;;20.05;12.77;;;;;;;18.79;42.13;103559.69;4881856;29;20057;-68
2021/12/19 03:47:41;;;;;;;;;;;;;;;18.79;42.11;103561.63;4882320;29;20085;-68
2021/12/19 03:50:09;;;;;;;15.80;11.63;;;;;;;18.80;41.89;103561.31;4864088;29;20325;-68
2021/12/19 03:52:36;;;;;;;23.48;12.75;;;;;;;18.85;41.99;103552.94;4863149;29;20389;-68
2021/12/19 03:55:02;;;;;;;17.63;12.77;;;;;;;18.93;41.66;103553.38;4863396;29;20029;-68
2021/12/19 03:57:28;;;;;;;15.90;12.10;;;;;;;18.99;41.55;103553.00;4863113;29;20040;-67
2021/12/19 03:59:53;;;;;;;18.67;13.32;;;;;;;18.95;41.67;103543.63;4863121;29;20025;-68
2021/12/19 04:02:26;;;;;;;21.05;12.63;;;;;;;19.01;41.62;103547.97;4862995;29;20385;-67
2021/12/19 04:04:54;;;;;;;20.02;13.88;;;;;;;19.01;41.79;103539.66;4863255;29;20393;-68
2021/12/19 04:07:20;;;;;;;19.80;14.43;;;;;;;19.02;41.61;103535.75;4862978;29;20030;-68
2021/12/19 04:09:46;;;;;;;20.50;13.50;;;;;;;18.99;41.66;103533.59;4862788;29;20034;-68
2021/12/19 04:12:12;;;;;;;16.77;13.52;;;;;;;18.96;41.67;103531.44;4862959;29;20021;-68
2021/12/19 04:14:38;;;;;;;18.42;14.00;;;;;;;18.96;41.74;103536.16;4863069;29;20093;-68
2021/12/19 04:17:04;;;;;;;19.67;13.88;;;;;;;18.89;41.74;103531.00;4862765;29;20109;-68
2021/12/19 04:19:30;;;;;;;24.85;14.52;;;;;;;18.90;41.90;103526.31;4863047;29;20036;-68
2021/12/19 04:21:56;;;;;;;23.67;14.02;;;;;;;18.95;41.79;103529.78;4862918;29;20489;-68
2021/12/19 04:24:22;;;;;;;18.85;12.88;;;;;;;18.89;41.82;103531.00;4862678;29;20029;-67
2021/12/19 04:26:48;;;;;;;16.83;12.35;;;;;;;18.87;41.94;103524.94;4862691;29;20053;-68
2021/12/19 04:29:13;;;;;;;15.70;11.88;;;;;;;18.83;41.77;103521.13;4862618;29;20037;-68
2021/12/19 04:31:40;;;;;;;17.42;12.27;;;;;;;18.85;41.66;103525.25;4862531;29;20116;-67
2021/12/19 04:34:05;;;;;;;16.27;12.45;;;;;;;18.87;41.73;103518.56;4862566;29;20481;-68
2021/12/19 04:36:32;;;;;;;16.95;13.02;;;;;;;18.88;41.63;103520.22;4862450;29;20073;-68
2021/12/19 04:44:46;;;;;;;17.35;13.02;;;;;;;18.85;41.73;103510.56;4861598;29;20096;-68
2021/12/19 05:00:44;;;;;;;20.35;12.93;;;;;;;18.77;41.35;103516.81;4880683;29;20029;-68
2021/12/19 05:14:08;;;;;;;15.88;12.20;;;;;;;18.45;41.74;103517.56;4880454;29;20089;-67
2021/12/19 05:16:36;;;;;;;19.67;13.50;;;;;;;18.46;41.77;103521.97;4880382;29;20185;-68
2021/12/19 05:19:08;;;;;;;19.08;14.77;;;;;;;18.43;41.76;103523.38;4880348;29;20116;-68
2021/12/19 05:21:37;;;;;;;19.52;13.90;;;;;;;18.40;41.79;103520.38;4880328;29;20025;-68
2021/12/19 05:26:28;;;;;;;18.88;14.18;;;;;;;18.24;42.18;103531.69;4880224;29;20029;-68
2021/12/19 05:28:53;;;;;;;18.73;13.80;;;;;;;17.98;42.82;103528.41;4880097;29;20066;-68
2021/12/19 05:31:20;;;;;;;23.23;14.68;;;;;;;18.17;42.37;103528.44;4880054;29;20583;-68
2021/12/19 05:33:47;;;;;;;20.85;14.15;;;;;;;18.24;42.26;103528.09;4880271;29;20025;-68
2021/12/19 05:46:40;;;;;;;17.70;12.90;;;;;;;18.30;42.07;103526.91;4880151;29;20093;-68
2021/12/19 05:49:06;;;;;;;26.20;16.05;;;;;;;18.38;42.05;103530.94;4879562;29;20041;-68
2021/12/19 05:51:33;;;;;;;18.63;14.07;;;;;;;18.36;41.93;103524.84;4879553;29;20029;-68
2021/12/19 05:54:00;;;;;;;31.58;17.40;;;;;;;18.44;41.77;103535.25;4879532;29;20149;-68
2021/12/19 05:56:26;;;;;;;23.88;16.92;;;;;;;18.43;42.00;103528.91;4879591;29;20560;-67
2021/12/19 05:58:51;;;;;;;23.45;16.15;;;;;;;18.49;41.79;103524.94;4879796;29;20108;-68
2021/12/19 06:01:17;;;;;;;23.40;14.95;;;;;;;18.55;41.89;103531.22;4879682;29;20037;-68
2021/12/19 06:03:43;;;;;;;28.23;16.33;;;;;;;18.51;41.95;103536.56;4879722;29;20037;-68
2021/12/19 06:06:09;;;;;;;22.98;16.15;;;;;;;18.49;42.03;103533.25;4879396;29;20033;-68
2021/12/19 06:08:34;;;;;;;21.65;13.95;;;;;;;18.54;41.81;103526.81;4879392;29;20084;-68
2021/12/19 06:11:00;;;;;;;23.67;15.00;;;;;;;18.52;41.79;103531.84;4862607;29;20064;-68
2021/12/19 06:13:26;;;;;;;25.40;17.00;;;;;;;18.55;41.76;103531.22;4879292;29;20060;-68
2021/12/19 06:15:54;;;;;;;20.38;14.98;;;;;;;18.53;41.80;103534.31;4879057;29;20052;-67
2021/12/19 06:18:20;;;;;;;22.23;14.90;;;;;;;18.53;41.88;103527.94;4879284;29;20040;-68
2021/12/19 06:20:47;;;;;;;24.58;17.45;;;;;;;18.60;41.59;103527.56;4879265;29;20108;-67
2021/12/19 06:23:13;;;;;;;22.65;16.08;;;;;;;18.53;41.88;103533.50;4879238;29;20040;-68
2021/12/19 06:25:45;;;;;;;26.27;18.67;;;;;;;18.57;41.54;103523.44;4879433;29;20033;-68
2021/12/19 06:28:15;;;;;;;29.05;17.85;;;;;;;18.57;41.32;103534.50;4879218;29;20025;-68
2021/12/19 06:30:41;;;;;;;26.45;17.00;;;;;;;18.50;41.69;103534.06;4878985;29;20388;-68
2021/12/19 06:33:07;;;;;;;24.52;17.45;;;;;;;18.56;41.54;103527.34;4879253;29;20029;-68
2021/12/19 06:35:33;;;;;;;25.42;17.30;;;;;;;18.59;41.48;103529.53;4879049;29;20544;-68
2021/12/19 06:37:59;;;;;;;23.83;18.38;;;;;;;18.56;41.47;103524.56;4879015;29;20036;-67
2021/12/19 06:40:25;;;;;;;25.95;17.10;;;;;;;18.60;41.44;103528.41;4879206;29;20404;-68
2021/12/19 06:42:50;;;;;;;24.65;18.10;;;;;;;18.55;41.61;103528.47;4878929;29;20033;-68
2021/12/19 06:45:17;;;;;;;26.45;19.05;;;;;;;18.47;42.00;103521.66;4878869;29;20077;-68
2021/12/19 06:47:42;;;;;;;28.17;19.00;;;;;;;18.60;41.54;103516.50;4878788;29;20032;-68
2021/12/19 06:50:09;;;;;;;31.65;19.17;;;;;;;18.64;41.65;103512.81;4878645;29;20041;-68
2021/12/19 06:52:36;;;;;;;30.67;20.13;;;;;;;18.57;41.60;103521.50;4878958;29;20025;-67
2021/12/19 06:55:03;;;;;;;31.90;20.42;;;;;;;18.60;41.71;103520.09;4877778;29;20097;-68
2021/12/19 06:57:28;;;;;;;23.40;17.85;;;;;;;18.53;41.67;103514.09;4878764;29;20037;-68
2021/12/19 06:59:54;;;;;;;23.55;18.58;;;;;;;18.50;41.77;103506.38;4878798;29;20032;-69
2021/12/19 07:02:20;;;;;;;24.23;18.83;;;;;;;18.59;41.50;103510.16;4878980;29;20033;-67
2021/12/19 07:04:45;;;;;;;26.30;18.85;;;;;;;18.56;41.52;103506.00;4878720;29;20037;-68
2021/12/19 07:07:12;;;;;;;26.30;18.02;;;;;;;18.54;41.56;103512.97;4878813;29;20037;-67
2021/12/19 07:09:38;;;;;;;28.58;20.83;;;;;;;18.63;41.32;103510.34;4878529;29;20162;-69
2021/12/19 07:12:05;;;;;;;31.38;22.75;;;;;;;18.62;41.31;103509.53;4878507;29;20037;-70
2021/12/19 07:14:31;;;;;;;30.08;20.77;;;;;;;18.71;41.27;103512.47;4878783;29;20033;-68
2021/12/19 07:16:57;;;;;;;34.08;22.42;;;;;;;18.66;41.35;103510.59;4878519;29;20492;-68
2021/12/19 07:19:22;;;;;;;31.90;21.13;;;;;;;18.67;41.40;103509.50;4881045;29;20037;-67
2021/12/19 07:21:48;;;;;;;31.02;20.92;;;;;;;18.73;41.38;103510.22;4882363;29;20109;-68
2021/12/19 07:24:13;;;;;;;30.98;22.00;;;;;;;18.73;41.51;103513.78;4882329;29;20040;-68
2021/12/19 07:26:39;;;;;;;30.60;20.20;;;;;;;18.74;41.42;103511.84;4882272;29;20037;-67
2021/12/19 07:29:05;;;;;;;38.03;22.63;;;;;;;18.70;41.41;103514.41;4882108;29;20120;-67
2021/12/19 07:31:31;;;;;;;30.98;21.42;;;;;;;18.76;41.29;103517.94;4882206;29;20033;-67
2021/12/19 07:33:58;;;;;;;31.20;22.67;;;;;;;18.69;41.27;103510.00;4882401;29;20081;-67
2021/12/19 07:36:28;;;;;;;32.38;22.17;;;;;;;18.67;41.49;103512.25;4882053;29;20036;-68
2021/12/19 07:39:01;;;;;;;31.25;20.45;;;;;;;18.64;41.55;103509.22;4882112;29;20055;-69
2021/12/19 07:41:26;;;;;;;32.75;19.80;;;;;;;18.66;41.29;103502.28;4882098;29;20052;-68
2021/12/19 07:43:52;;;;;;;30.02;21.67;;;;;;;18.64;41.30;103501.72;4881973;29;20473;-68
2021/12/19 07:46:18;;;;;;;32.53;23.67;;;;;;;18.65;41.43;103500.59;4881935;29;20445;-68
2021/12/19 07:48:43;;;;;;;31.73;22.55;;;;;;;18.70;41.19;103499.75;4881734;29;20048;-67
2021/12/19 07:51:09;;;;;;;29.58;21.60;;;;;;;18.63;41.45;103497.31;4881760;29;20112;-68
2021/12/19 07:53:34;;;;;;;35.45;22.20;;;;;;;18.60;41.64;103497.94;4881871;29;20109;-68
2021/12/19 07:56:00;;;;;;;28.05;21.92;;;;;;;18.64;41.49;103500.91;4881786;29;20029;-68
2021/12/19 07:58:26;;;;;;;34.90;23.65;;;;;;;18.57;41.66;103506.81;4882009;29;20084;-67
2021/12/19 08:00:52;;;;;;;31.98;22.55;;;;;;;18.53;41.61;103506.63;4881543;29;20504;-68
2021/12/19 08:03:18;;;;;;;28.35;20.35;;;;;;;18.57;41.61;103502.09;4881468;29;20025;-67
2021/12/19 08:05:44;;;;;;;34.15;22.52;;;;;;;18.64;41.27;103498.97;4881600;29;20036;-67
2021/12/19 08:08:11;;;;;;;29.15;21.55;;;;;;;18.63;41.54;103497.31;4881493;29;20033;-68
2021/12/19 08:13:05;;;;;;;31.90;21.08;;;;;;;18.62;41.42;103495.69;4881406;29;20025;-68
2021/12/19 08:15:33;;;;;;;32.13;22.35;;;;;;;18.68;41.39;103491.75;4881434;29;20519;-68
2021/12/19 08:17:59;;;;;;;30.05;20.95;;;;;;;18.50;41.79;103489.78;4881348;29;20044;-66
2021/12/19 08:20:26;;;;;;;29.20;20.63;;;;;;;18.47;41.81;103473.78;4881282;29;20449;-66
2021/12/19 08:22:53;;;;;;;25.25;18.45;;;;;;;18.45;41.58;103484.34;4881540;29;20033;-67
2021/12/19 08:25:19;;;;;;;24.17;18.70;;;;;;;18.51;41.48;103483.09;4881474;29;20176;-66
2021/12/19 08:27:44;;;;;;;30.00;20.52;;;;;;;18.46;41.57;103481.25;4881184;29;20535;-67
2021/12/19 08:30:12;;;;;;;28.95;21.05;;;;;;;18.44;41.66;103482.66;4881175;29;20043;-66
2021/12/19 08:32:39;;;;;;;24.27;18.75;;;;;;;18.47;41.39;103490.38;4874820;29;20037;-66
2021/12/19 08:35:07;;;;;;;26.17;18.40;;;;;;;18.41;41.54;103492.41;4885423;29;20520;-67
2021/12/19 08:37:33;;;;;;;33.70;20.70;;;;;;;18.44;41.42;103491.81;4876172;29;20036;-66
2021/12/19 08:39:59;;;;;;;27.38;19.00;;;;;;;18.44;41.54;103490.97;4860104;29;20036;-66
2021/12/19 08:42:24;;;;;;;28.95;20.58;;;;;;;18.35;41.61;103490.81;4878154;29;20033;-74
2021/12/19 08:44:50;;;;;;;29.77;20.33;;;;;;;18.41;41.46;103486.03;4880320;29;20472;-72
2021/12/19 08:47:17;;;;;;;27.27;18.98;;;;;;;18.34;41.53;103488.34;4879154;29;20033;-66
2021/12/19 08:49:43;;;;;;;28.95;19.23;;;;;;;18.37;41.43;103485.00;4879302;29;20045;-66
2021/12/19 08:52:10;;;;;;;35.35;21.48;;;;;;;18.35;41.32;103484.47;4879334;29;20536;-66
2021/12/19 08:54:36;;;;;;;34.75;22.08;;;;;;;18.38;41.37;103481.13;4878328;29;20029;-67
2021/12/19 08:57:02;;;;;;;34.15;21.60;;;;;;;18.35;41.57;103493.59;4877618;29;20013;-67
2021/12/19 08:59:29;;;;;;;28.83;20.75;;;;;;;18.38;41.31;103484.69;4879539;29;20053;-68
2021/12/19 09:01:57;;;;;;;30.35;18.92;;;;;;;18.39;41.49;103480.00;4875015;29;20107;-67
2021/12/19 09:04:23;;;;;;;25.63;17.63;;;;;;;18.44;41.21;103485.44;4875722;29;20045;-67
2021/12/19 09:06:49;;;;;;;31.65;19.58;;;;;;;18.42;41.28;103482.97;4879093;29;20031;-67
2021/12/19 09:09:15;;;;;;;27.60;18.73;;;;;;;18.47;41.30;103491.19;4879124;29;20021;-67
2021/12/19 09:11:40;;;;;;;27.92;19.00;;;;;;;18.41;41.34;103486.03;4878918;29;20416;-67
2021/12/19 09:14:06;;;;;;;30.98;19.55;;;;;;;18.41;41.36;103488.81;4879165;29;20029;-67
2021/12/19 09:16:31;;;;;;;28.30;18.90;;;;;;;18.38;41.43;103489.41;4879145;29;20025;-67
2021/12/19 09:18:57;;;;;;;31.30;20.80;;;;;;;18.38;41.43;103492.19;4878993;29;20021;-66
2021/12/19 09:21:23;;;;;;;33.28;21.17;;;;;;;18.43;41.24;103492.91;4879223;29;20790;-66
2021/12/19 09:23:48;;;;;;;33.65;20.17;;;;;;;18.49;41.26;103482.59;4879019;29;20057;-67
2021/12/19 09:26:14;;;;;;;30.15;19.63;;;;;;;18.44;41.24;103483.50;4879209;29;20059;-67
2021/12/19 09:28:40;;;;;;;31.17;20.60;;;;;;;18.43;41.59;103489.31;4879853;29;20059;-67
2021/12/19 09:31:05;;;;;;;32.00;19.52;;;;;;;18.44;41.41;103483.50;4879781;29;20037;-66
2021/12/19 09:33:31;;;;;;;31.55;19.40;;;;;;;18.51;41.15;103489.50;4884930;29;20037;-67
2021/12/19 09:35:57;;;;;;;28.90;19.67;;;;;;;18.56;41.13;103488.56;4875861;29;20036;-67
2021/12/19 09:38:27;;;;;;;28.65;19.05;;;;;;;18.58;41.14;103489.09;4879747;29;20037;-68
2021/12/19 09:40:59;;;;;;;34.10;19.33;;;;;;;18.54;41.23;103485.28;4883389;29;20484;-66
2021/12/19 09:43:41;;;;;;;38.53;21.58;;;;;;;18.47;41.17;103482.06;4878934;29;20476;-67
2021/12/19 09:46:20;;;;;;;31.75;19.73;;;;;;;18.46;41.27;103484.03;4878959;29;20112;-72
2021/12/19 09:48:48;;;;;;;34.63;20.92;;;;;;;18.42;41.26;103484.91;4879537;29;20052;-68
2021/12/19 09:51:17;;;;;;;29.33;19.95;;;;;;;18.52;41.33;103484.78;4879560;29;20043;-68
2021/12/19 09:53:43;;;;;;;32.85;21.40;;;;;;;18.56;41.15;103483.84;4879474;29;20041;-67
2021/12/19 09:56:10;;;;;;;34.42;21.48;;;;;;;18.57;41.46;103476.38;4879595;29;20044;-68
2021/12/19 09:58:36;;;;;;;37.05;19.73;;;;;;;18.62;41.26;103481.84;4879792;29;20030;-72
2021/12/19 10:01:06;;;;;;;38.42;22.27;;;;;;;18.62;41.28;103483.78;4879553;29;20077;-69
2021/12/19 10:03:32;;;;;;;34.58;22.30;;;;;;;18.66;41.30;103482.88;4879256;29;20029;-68
2021/12/19 10:06:31;;;;;;;30.23;20.15;;;;;;;18.60;41.31;103492.41;4879468;29;20397;-68
2021/12/19 10:09:20;;;;;;;40.13;20.48;;;;;;;18.67;41.21;103480.97;4838355;29;20092;-68
2021/12/19 10:12:00;;;;;;;40.22;23.48;;;;;;;18.64;41.27;103478.75;4878155;29;20047;-68
2021/12/19 10:14:34;;;;;;;32.63;20.52;;;;;;;18.54;41.36;103477.81;4875934;29;20037;-68
2021/12/19 10:17:18;;;;;;;28.90;18.92;;;;;;;18.50;41.45;103484.22;4878174;29;20097;-69
2021/12/19 10:20:06;;;;;;;32.33;20.63;;;;;;;18.61;41.37;103484.91;4875916;29;20069;-68
2021/12/19 10:22:39;;;;;;;33.72;21.92;;;;;;;18.62;41.35;103492.91;4876703;29;20490;-77
2021/12/19 10:25:07;;;;;;;40.22;23.73;;;;;;;18.61;41.59;103491.28;4875889;29;20029;-78
2021/12/19 10:27:45;;;;;;;52.83;24.80;;;;;;;18.70;41.52;103491.44;4878382;29;20032;-73
2021/12/19 10:30:22;;;;;;;42.35;24.50;;;;;;;18.71;41.40;103491.13;4876517;29;20112;-78
2021/12/19 10:32:54;;;;;;;71.65;43.05;;;;;;;18.73;41.46;103488.06;4876192;29;20112;-78
2021/12/19 10:35:23;;;;;;;35.28;23.67;;;;;;;18.78;41.15;103483.25;4878148;29;20053;-78
2021/12/19 10:37:48;;;;;;;77.60;40.87;;;;;;;18.75;41.46;103481.09;4878167;29;20073;-78
2021/12/19 10:40:14;;;;;;;64.25;37.38;;;;;;;18.83;41.28;103482.34;4877955;29;20304;-77
2021/12/19 10:42:49;;;;;;;35.22;22.55;;;;;;;18.83;41.34;103477.63;4877784;29;20028;-78
2021/12/19 10:45:30;;;;;;;33.58;20.15;;;;;;;18.88;41.15;103485.03;4861182;29;20425;-77
2021/12/19 10:48:16;;;;;;;36.15;19.73;;;;;;;18.85;41.29;103478.16;4876944;29;20025;-77
2021/12/19 10:51:02;;;;;;;26.45;17.60;;;;;;;18.87;41.08;103486.16;4874305;29;20044;-69
2021/12/19 10:53:33;;;;;;;26.98;16.88;;;;;;;18.84;41.06;103475.69;4877340;29;20051;-68
2021/12/19 10:56:03;;;;;;;28.73;17.25;;;;;;;18.74;41.26;103478.63;4877077;29;20536;-68
2021/12/19 10:58:37;;;;;;;32.00;20.20;;;;;;;18.56;41.07;103480.25;4874777;29;20033;-68
2021/12/19 11:01:14;;;;;;;29.85;19.77;;;;;;;18.66;41.07;103477.34;4879770;29;20041;-69
2021/12/19 11:03:47;;;;;;;33.28;20.45;;;;;;;18.73;40.93;103472.25;4877009;29;20029;-69
2021/12/19 11:06:19;;;;;;;28.25;18.65;;;;;;;18.66;41.23;103471.81;4878252;29;20029;-69
2021/12/19 11:08:45;;;;;;;34.92;21.17;;;;;;;18.71;41.05;103473.69;4877785;29;20070;-70
2021/12/19 11:11:12;;;;;;;28.15;19.42;;;;;;;18.80;40.88;103472.69;4878616;29;20032;-69
2021/12/19 11:13:38;;;;;;;38.50;20.52;;;;;;;18.85;40.76;103469.03;4878391;29;20488;-68
2021/12/19 11:16:05;;;;;;;30.50;18.02;;;;;;;18.89;40.90;103469.22;4877720;29;20114;-69
2021/12/19 11:18:31;;;;;;;30.60;18.50;;;;;;;18.89;40.77;103470.03;4878442;29;20108;-76
2021/12/19 11:20:57;;;;;;;33.28;20.80;;;;;;;18.85;40.99;103463.47;4878568;29;20120;-68
2021/12/19 11:23:26;;;;;;;27.27;20.25;;;;;;;18.82;41.02;103467.69;4878398;29;20032;-67
2021/12/19 11:25:52;;;;;;;37.03;21.40;;;;;;;18.85;40.86;103457.94;4878244;29;20397;-67
2021/12/19 11:28:18;;;;;;;27.73;18.73;;;;;;;18.80;40.92;103458.84;4865798;29;20522;-68
2021/12/19 11:30:43;;;;;;;27.00;17.77;;;;;;;18.78;40.99;103447.25;4862724;29;20025;-77
2021/12/19 11:33:44;;;;;;;26.38;17.85;;;;;;;18.86;40.76;103454.03;4861102;29;20845;-73
2021/12/19 11:36:11;;;;;;;23.38;16.33;;;;;;;18.73;40.82;103447.31;4862938;29;20082;-68
2021/12/19 11:38:38;;;;;;;30.48;18.17;;;;;;;18.73;40.75;103439.00;4862115;29;20033;-68
2021/12/19 11:41:10;;;;;;;28.95;18.95;;;;;;;18.78;40.88;103438.94;4862549;29;20032;-69
2021/12/19 11:43:43;;;;;;;35.53;20.85;;;;;;;18.84;40.86;103428.59;4862668;29;20028;-68
2021/12/19 11:46:19;;;;;;;29.40;17.52;;;;;;;18.89;40.73;103427.66;4861713;29;20047;-69
2021/12/19 11:48:45;;;;;;;31.70;20.38;;;;;;;18.93;40.81;103420.41;4862459;29;20045;-74
2021/12/19 11:51:20;;;;;;;36.30;22.85;;;;;;;18.92;40.88;103430.66;4861909;29;20445;-75
2021/12/19 11:53:46;;;;;;;27.30;18.38;;;;;;;18.90;40.77;103424.63;4861319;29;20032;-69
2021/12/19 11:56:17;;;;;;;33.15;18.30;;;;;;;18.96;40.88;103425.31;4861927;29;20396;-69
2021/12/19 11:58:51;;;;;;;29.08;17.83;;;;;;;18.87;40.90;103418.84;4861778;29;20013;-69
2021/12/19 12:01:19;;;;;;;27.35;18.52;;;;;;;18.98;40.82;103412.00;4854708;29;20049;-69
2021/12/19 12:03:50;;;;;;;29.98;17.70;;;;;;;18.99;40.65;103403.38;4862404;29;20473;-69
2021/12/19 12:06:21;;;;;;;21.95;17.48;;;;;;;19.00;40.62;103402.25;4866058;29;20025;-69
2021/12/19 12:09:10;;;;;;;23.67;16.42;;;;;;;19.01;40.49;103401.13;4865533;29;20029;-70
2021/12/19 12:11:39;;;;;;;21.38;15.45;;;;;;;18.93;40.62;103398.25;4865408;29;20096;-70
2021/12/19 12:14:30;;;;;;;26.02;19.77;;;;;;;18.79;40.94;103399.03;4865586;29;20039;-69
2021/12/19 12:17:07;;;;;;;26.52;16.73;;;;;;;18.68;41.25;103394.81;4865414;29;20119;-70
2021/12/19 12:19:44;;;;;;;25.30;16.92;;;;;;;18.63;41.28;103394.88;4864364;29;20041;-69
2021/12/19 12:22:20;;;;;;;25.25;18.27;;;;;;;18.60;41.26;103392.72;4865326;29;20048;-69
2021/12/19 12:25:08;;;;;;;22.35;17.17;;;;;;;18.62;41.21;103389.63;4865185;29;20025;-68
2021/12/19 12:27:45;;;;;;;28.20;18.10;;;;;;;18.59;41.30;103382.75;4865065;29;20073;-69